createdAt,value
2017-12-16T00:00:33.824Z,2.93
2017-12-16T00:01:38.581Z,2.83
2017-12-16T00:02:43.151Z,2.76
2017-12-16T00:03:47.629Z,2.82
2017-12-16T00:04:51.981Z,2.77
2017-12-16T00:05:56.375Z,2.71
2017-12-16T00:07:01.075Z,2.67
2017-12-16T00:08:05.665Z,2.72
2017-12-16T00:09:09.993Z,2.76
2017-12-16T00:10:14.730Z,2.68
2017-12-16T00:11:19.084Z,2.66
2017-12-16T00:12:24.994Z,2.64
2017-12-16T00:13:29.400Z,2.60
2017-12-16T00:14:33.763Z,2.53
2017-12-16T00:15:38.413Z,2.50
2017-12-16T00:16:43.243Z,2.53
2017-12-16T00:17:47.647Z,2.49
2017-12-16T00:18:52.113Z,2.51
2017-12-16T00:19:56.499Z,2.63
2017-12-16T00:21:00.820Z,2.65
2017-12-16T00:22:06.230Z,2.73
2017-12-16T00:23:10.967Z,2.76
2017-12-16T00:24:15.355Z,2.80
2017-12-16T00:25:19.802Z,2.75
2017-12-16T00:26:24.820Z,2.79
2017-12-16T00:27:29.164Z,2.77
2017-12-16T00:28:34.616Z,2.73
2017-12-16T00:29:38.960Z,2.73
2017-12-16T00:30:43.561Z,2.83
2017-12-16T00:31:47.971Z,2.79
2017-12-16T00:32:52.349Z,2.75
2017-12-16T00:33:56.680Z,2.87
2017-12-16T00:35:01.167Z,2.81
2017-12-16T00:36:05.899Z,2.83
2017-12-16T00:37:10.391Z,2.83
2017-12-16T00:38:14.721Z,2.84
2017-12-16T00:39:19.080Z,2.90
2017-12-16T00:40:25.264Z,2.96
2017-12-16T00:41:29.992Z,2.86
2017-12-16T00:42:34.290Z,2.85
2017-12-16T00:43:39.717Z,2.93
2017-12-16T00:44:44.062Z,2.83
2017-12-16T00:45:48.613Z,2.83
2017-12-16T00:46:52.954Z,2.84
2017-12-16T00:47:57.235Z,2.76
2017-12-16T00:49:01.609Z,2.75
2017-12-16T00:50:06.903Z,2.76
2017-12-16T00:51:11.320Z,2.71
2017-12-16T00:52:15.656Z,2.60
2017-12-16T00:53:20.355Z,2.54
2017-12-16T00:54:25.323Z,2.53
2017-12-16T00:55:29.831Z,2.60
2017-12-16T00:56:34.392Z,2.57
2017-12-16T00:57:38.983Z,2.65
2017-12-16T00:58:43.417Z,2.74
2017-12-16T00:59:48.164Z,2.81
2017-12-16T01:00:52.929Z,2.74
2017-12-16T01:01:57.565Z,2.65
2017-12-16T01:03:01.945Z,2.64
2017-12-16T01:04:06.248Z,2.54
2017-12-16T01:05:12.773Z,2.60
2017-12-16T01:06:17.098Z,2.51
2017-12-16T01:07:21.681Z,2.58
2017-12-16T01:08:26.082Z,2.66
2017-12-16T01:09:30.590Z,2.83
2017-12-16T01:10:34.959Z,2.83
2017-12-16T01:11:39.727Z,2.69
2017-12-16T01:12:49.135Z,2.55
2017-12-16T01:13:53.574Z,2.42
2017-12-16T01:14:57.876Z,2.37
2017-12-16T01:16:02.659Z,2.33
2017-12-16T01:17:07.024Z,2.30
2017-12-16T01:18:11.308Z,2.33
2017-12-16T01:19:15.736Z,2.40
2017-12-16T01:20:20.114Z,2.52
2017-12-16T01:21:25.432Z,2.54
2017-12-16T01:22:29.734Z,2.68
2017-12-16T01:23:34.682Z,2.56
2017-12-16T01:24:39.442Z,2.42
2017-12-16T01:25:44.303Z,2.38
2017-12-16T01:26:48.669Z,2.37
2017-12-16T01:27:53.105Z,2.44
2017-12-16T01:28:57.411Z,2.36
2017-12-16T01:30:04.161Z,2.42
2017-12-16T01:31:08.875Z,2.40
2017-12-16T01:32:13.302Z,2.39
2017-12-16T01:33:18.454Z,2.29
2017-12-16T01:36:39.874Z,2.24
2017-12-16T01:38:47.810Z,2.17
2017-12-16T01:39:52.157Z,2.13
2017-12-16T01:40:56.494Z,2.13
2017-12-16T01:42:01.230Z,2.17
2017-12-16T01:43:06.176Z,2.25
2017-12-16T01:44:10.492Z,2.33
2017-12-16T01:45:17.335Z,2.36
2017-12-16T01:46:22.981Z,2.34
2017-12-16T01:47:27.659Z,2.38
2017-12-16T01:48:32.044Z,2.38
2017-12-16T01:49:36.290Z,2.42
2017-12-16T01:50:40.544Z,2.40
2017-12-16T01:51:44.918Z,2.42
2017-12-16T01:52:49.191Z,2.51
2017-12-16T01:53:53.484Z,2.51
2017-12-16T01:54:57.835Z,2.60
2017-12-16T01:56:02.414Z,2.60
2017-12-16T01:57:06.876Z,2.71
2017-12-16T01:58:11.403Z,2.62
2017-12-16T01:59:15.771Z,2.54
2017-12-16T02:00:21.811Z,2.53
2017-12-16T02:01:26.069Z,2.51
2017-12-16T02:02:31.220Z,2.45
2017-12-16T02:03:35.562Z,2.60
2017-12-16T02:04:39.955Z,2.54
2017-12-16T02:05:44.294Z,2.61
2017-12-16T02:06:48.615Z,2.58
2017-12-16T02:07:53.013Z,2.67
2017-12-16T02:08:57.303Z,2.73
2017-12-16T02:10:01.927Z,2.64
2017-12-16T02:11:06.207Z,2.63
2017-12-16T02:12:10.637Z,2.55
2017-12-16T02:13:14.994Z,2.48
2017-12-16T02:14:20.576Z,2.43
2017-12-16T02:15:25.642Z,2.43
2017-12-16T02:16:34.673Z,2.49
2017-12-16T02:17:38.992Z,2.45
2017-12-16T02:18:43.428Z,2.52
2017-12-16T02:19:47.756Z,2.72
2017-12-16T02:20:52.948Z,2.75
2017-12-16T02:21:57.706Z,2.77
2017-12-16T02:23:03.077Z,2.69
2017-12-16T02:24:07.498Z,2.50
2017-12-16T02:25:12.563Z,2.40
2017-12-16T02:26:16.906Z,2.37
2017-12-16T02:27:21.227Z,2.30
2017-12-16T02:28:26.513Z,2.25
2017-12-16T02:29:31.679Z,2.24
2017-12-16T02:30:36.353Z,2.24
2017-12-16T02:31:40.635Z,2.28
2017-12-16T02:32:45.342Z,2.30
2017-12-16T02:33:49.759Z,2.32
2017-12-16T02:34:54.037Z,2.41
2017-12-16T02:35:58.346Z,2.58
2017-12-16T02:37:02.663Z,2.61
2017-12-16T02:38:07.066Z,2.58
2017-12-16T02:39:11.450Z,2.47
2017-12-16T02:40:26.763Z,2.32
2017-12-16T02:41:31.112Z,2.20
2017-12-16T02:42:35.485Z,2.17
2017-12-16T02:43:39.801Z,2.12
2017-12-16T02:44:44.188Z,2.04
2017-12-16T02:45:49.183Z,1.97
2017-12-16T02:46:53.478Z,1.93
2017-12-16T02:47:57.767Z,1.88
2017-12-16T02:49:02.311Z,1.86
2017-12-16T02:50:07.091Z,1.86
2017-12-16T02:51:11.453Z,1.86
2017-12-16T02:52:15.751Z,1.84
2017-12-16T02:53:21.340Z,1.84
2017-12-16T02:54:25.690Z,1.80
2017-12-16T02:55:30.484Z,1.86
2017-12-16T02:56:35.543Z,1.85
2017-12-16T02:57:40.393Z,1.84
2017-12-16T02:58:44.687Z,1.87
2017-12-16T02:59:49.314Z,1.84
2017-12-16T03:00:54.055Z,1.90
2017-12-16T03:01:58.805Z,1.94
2017-12-16T03:03:03.241Z,2.04
2017-12-16T03:04:07.659Z,2.04
2017-12-16T03:05:12.065Z,2.11
2017-12-16T03:06:16.763Z,2.04
2017-12-16T03:07:23.929Z,2.16
2017-12-16T03:08:28.556Z,2.11
2017-12-16T03:09:34.989Z,2.10
2017-12-16T03:10:39.325Z,2.00
2017-12-16T03:11:43.848Z,1.93
2017-12-16T03:12:48.505Z,2.00
2017-12-16T03:13:52.803Z,1.89
2017-12-16T03:14:57.126Z,1.78
2017-12-16T03:16:01.857Z,1.69
2017-12-16T03:17:06.418Z,1.62
2017-12-16T03:18:11.066Z,1.59
2017-12-16T03:19:15.430Z,1.65
2017-12-16T03:20:20.911Z,1.63
2017-12-16T03:21:25.869Z,1.65
2017-12-16T03:22:30.797Z,1.62
2017-12-16T03:23:35.306Z,1.63
2017-12-16T03:24:39.634Z,1.65
2017-12-16T03:25:44.301Z,1.58
2017-12-16T03:26:48.655Z,1.68
2017-12-16T03:27:53.034Z,1.70
2017-12-16T03:28:57.421Z,1.82
2017-12-16T03:30:01.869Z,1.77
2017-12-16T03:31:06.644Z,1.81
2017-12-16T03:32:12.722Z,1.75
2017-12-16T03:33:17.054Z,1.78
2017-12-16T03:34:21.485Z,1.77
2017-12-16T03:35:26.427Z,1.74
2017-12-16T03:36:31.295Z,1.82
2017-12-16T03:37:35.640Z,1.81
2017-12-16T03:38:40.340Z,1.75
2017-12-16T03:39:44.842Z,1.69
2017-12-16T03:40:49.094Z,1.69
2017-12-16T03:41:53.782Z,1.59
2017-12-16T03:42:58.037Z,1.54
2017-12-16T03:44:02.445Z,1.47
2017-12-16T03:45:07.204Z,1.42
2017-12-16T03:46:11.980Z,1.47
2017-12-16T03:47:16.428Z,1.48
2017-12-16T03:48:24.132Z,1.44
2017-12-16T03:49:28.544Z,1.54
2017-12-16T03:50:32.886Z,1.50
2017-12-16T03:51:37.222Z,1.45
2017-12-16T03:52:41.540Z,1.46
2017-12-16T03:53:45.926Z,1.58
2017-12-16T03:54:50.377Z,1.53
2017-12-16T03:55:54.959Z,1.50
2017-12-16T03:56:59.364Z,1.62
2017-12-16T03:58:04.049Z,1.52
2017-12-16T03:59:12.632Z,1.46
2017-12-16T04:00:17.671Z,1.50
2017-12-16T04:01:32.193Z,1.56
2017-12-16T04:02:36.500Z,1.48
2017-12-16T04:03:41.104Z,1.54
2017-12-16T04:04:45.572Z,1.50
2017-12-16T04:05:49.939Z,1.42
2017-12-16T04:06:54.238Z,1.39
2017-12-16T04:07:58.656Z,1.37
2017-12-16T04:09:02.971Z,1.39
2017-12-16T04:10:07.736Z,1.29
2017-12-16T04:11:12.082Z,1.35
2017-12-16T04:12:16.548Z,1.34
2017-12-16T04:13:21.001Z,1.31
2017-12-16T04:14:26.293Z,1.29
2017-12-16T04:15:30.946Z,1.23
2017-12-16T04:16:35.667Z,1.25
2017-12-16T04:17:40.203Z,1.29
2017-12-16T04:18:44.511Z,1.32
2017-12-16T04:19:48.830Z,1.26
2017-12-16T04:20:53.132Z,1.46
2017-12-16T04:22:03.135Z,1.37
2017-12-16T04:23:07.456Z,1.38
2017-12-16T04:24:11.784Z,1.38
2017-12-16T04:25:16.448Z,1.32
2017-12-16T04:26:20.753Z,1.24
2017-12-16T04:27:25.034Z,1.43
2017-12-16T04:28:29.385Z,1.30
2017-12-16T04:29:33.817Z,1.23
2017-12-16T04:30:38.385Z,1.21
2017-12-16T04:31:42.699Z,1.11
2017-12-16T04:32:47.342Z,1.10
2017-12-16T04:33:52.052Z,1.16
2017-12-16T04:34:56.586Z,1.22
2017-12-16T04:36:00.951Z,1.29
2017-12-16T04:37:05.237Z,1.39
2017-12-16T04:38:09.822Z,1.35
2017-12-16T04:39:14.099Z,1.39
2017-12-16T04:40:18.459Z,1.33
2017-12-16T04:41:23.517Z,1.26
2017-12-16T04:42:28.780Z,1.21
2017-12-16T04:43:33.167Z,1.24
2017-12-16T04:44:37.528Z,1.25
2017-12-16T04:45:42.345Z,1.31
2017-12-16T04:46:47.068Z,1.30
2017-12-16T04:47:51.409Z,1.35
2017-12-16T04:48:56.156Z,1.36
2017-12-16T04:50:00.485Z,1.39
2017-12-16T04:51:04.771Z,1.39
2017-12-16T04:52:09.464Z,1.42
2017-12-16T04:53:19.539Z,1.48
2017-12-16T04:54:24.243Z,1.66
2017-12-16T04:55:28.975Z,2.07
2017-12-16T04:56:33.919Z,2.36
2017-12-16T04:57:38.334Z,2.59
2017-12-16T04:58:42.954Z,2.61
2017-12-16T04:59:47.553Z,2.66
2017-12-16T05:00:52.169Z,2.73
2017-12-16T05:01:56.581Z,2.86
2017-12-16T05:03:00.956Z,2.75
2017-12-16T05:04:05.538Z,2.66
2017-12-16T05:05:09.843Z,2.73
2017-12-16T05:06:14.119Z,2.77
2017-12-16T05:07:18.485Z,2.71
2017-12-16T05:08:23.046Z,2.74
2017-12-16T05:09:27.385Z,2.91
2017-12-16T05:10:32.881Z,3.14
2017-12-16T05:11:37.195Z,3.09
2017-12-16T05:12:41.482Z,2.85
2017-12-16T05:13:46.323Z,2.71
2017-12-16T05:14:50.644Z,2.67
2017-12-16T05:15:55.168Z,2.76
2017-12-16T05:16:59.826Z,2.68
2017-12-16T05:18:04.273Z,2.67
2017-12-16T05:19:08.681Z,2.52
2017-12-16T05:20:12.988Z,2.44
2017-12-16T05:21:17.323Z,2.41
2017-12-16T05:22:23.208Z,2.27
2017-12-16T05:23:27.556Z,2.20
2017-12-16T05:24:33.089Z,2.11
2017-12-16T05:25:37.582Z,2.08
2017-12-16T05:26:42.054Z,2.05
2017-12-16T05:27:46.550Z,2.15
2017-12-16T05:28:50.979Z,2.31
2017-12-16T05:29:55.299Z,2.78
2017-12-16T05:30:59.997Z,2.94
2017-12-16T05:32:04.811Z,2.77
2017-12-16T05:33:09.132Z,2.74
2017-12-16T05:34:13.507Z,2.70
2017-12-16T05:35:18.124Z,2.48
2017-12-16T05:36:22.393Z,2.23
2017-12-16T05:37:27.446Z,1.98
2017-12-16T05:38:32.543Z,1.77
2017-12-16T05:39:37.017Z,1.59
2017-12-16T05:40:41.672Z,1.48
2017-12-16T05:41:46.656Z,1.47
2017-12-16T05:42:51.026Z,1.51
2017-12-16T05:43:55.353Z,1.55
2017-12-16T05:44:59.746Z,1.65
2017-12-16T05:46:04.242Z,1.66
2017-12-16T05:47:09.404Z,1.73
2017-12-16T05:48:13.966Z,1.85
2017-12-16T05:49:18.367Z,2.05
2017-12-16T05:50:22.762Z,1.89
2017-12-16T05:51:27.767Z,1.81
2017-12-16T05:52:33.535Z,1.71
2017-12-16T05:53:38.780Z,1.65
2017-12-16T05:54:43.216Z,1.96
2017-12-16T05:55:47.544Z,2.25
2017-12-16T05:56:52.655Z,2.69
2017-12-16T05:57:57.636Z,2.71
2017-12-16T05:59:02.337Z,2.86
2017-12-16T06:00:15.996Z,2.80
2017-12-16T06:01:20.443Z,2.42
2017-12-16T06:02:25.415Z,2.12
2017-12-16T06:03:29.830Z,2.11
2017-12-16T06:04:35.122Z,1.82
2017-12-16T06:05:39.799Z,1.71
2017-12-16T06:06:44.132Z,1.52
2017-12-16T06:07:48.439Z,1.34
2017-12-16T06:08:52.864Z,1.18
2017-12-16T06:09:57.159Z,1.07
2017-12-16T06:11:01.684Z,0.93
2017-12-16T06:12:06.312Z,0.87
2017-12-16T06:13:10.666Z,0.89
2017-12-16T06:14:14.974Z,0.80
2017-12-16T06:15:19.570Z,0.72
2017-12-16T06:16:24.288Z,0.66
2017-12-16T06:17:28.644Z,0.57
2017-12-16T06:19:46.659Z,0.49
2017-12-16T06:20:51.539Z,0.50
2017-12-16T06:21:55.961Z,0.49
2017-12-16T06:23:00.333Z,0.46
2017-12-16T06:24:11.613Z,0.45
2017-12-16T06:25:15.987Z,0.44
2017-12-16T06:26:20.378Z,0.44
2017-12-16T06:27:24.853Z,0.44
2017-12-16T06:28:29.139Z,0.46
2017-12-16T06:29:34.241Z,0.52
2017-12-16T06:30:39.299Z,0.62
2017-12-16T06:31:43.622Z,0.73
2017-12-16T06:32:47.984Z,0.82
2017-12-16T06:33:58.064Z,0.94
2017-12-16T06:35:02.663Z,1.05
2017-12-16T06:36:07.888Z,1.11
2017-12-16T06:37:24.417Z,1.25
2017-12-16T06:38:28.816Z,1.32
2017-12-16T06:39:35.301Z,1.38
2017-12-16T06:40:40.014Z,1.50
2017-12-16T06:41:44.638Z,1.61
2017-12-16T06:42:49.793Z,1.62
2017-12-16T06:43:56.608Z,1.57
2017-12-16T06:45:00.962Z,1.67
2017-12-16T06:46:06.188Z,1.76
2017-12-16T06:47:11.009Z,1.73
2017-12-16T06:48:20.471Z,1.65
2017-12-16T06:49:25.316Z,1.58
2017-12-16T06:50:34.527Z,1.42
2017-12-16T06:51:39.171Z,1.35
2017-12-16T06:52:43.474Z,1.18
2017-12-16T06:53:48.054Z,1.07
2017-12-16T06:54:52.950Z,0.98
2017-12-16T06:55:57.805Z,0.90
2017-12-16T06:57:03.508Z,0.83
2017-12-16T06:58:08.084Z,0.76
2017-12-16T06:59:12.406Z,0.73
2017-12-16T07:00:19.057Z,0.68
2017-12-16T07:01:23.467Z,0.70
2017-12-16T07:02:28.144Z,0.68
2017-12-16T07:03:33.298Z,0.69
2017-12-16T07:04:37.607Z,0.93
2017-12-16T07:05:43.386Z,0.93
2017-12-16T07:06:47.975Z,0.94
2017-12-16T07:07:52.579Z,0.93
2017-12-16T07:08:57.177Z,0.97
2017-12-16T07:10:01.488Z,0.88
2017-12-16T07:11:06.028Z,0.82
2017-12-16T07:12:10.496Z,0.77
2017-12-16T07:13:15.176Z,0.98
2017-12-16T07:15:50.729Z,0.97
2017-12-16T07:18:03.025Z,0.80
2017-12-16T07:19:07.291Z,0.89
2017-12-16T07:20:11.614Z,0.87
2017-12-16T07:21:23.140Z,0.66
2017-12-16T07:22:27.882Z,0.50
2017-12-16T07:23:33.332Z,0.39
2017-12-16T07:24:48.509Z,0.35
2017-12-16T07:25:52.962Z,0.32
2017-12-16T07:26:57.780Z,0.32
2017-12-16T07:28:02.307Z,0.29
2017-12-16T07:29:06.681Z,0.26
2017-12-16T07:30:13.866Z,0.23
2017-12-16T07:31:18.238Z,0.23
2017-12-16T07:32:27.162Z,0.23
2017-12-16T07:33:31.615Z,0.23
2017-12-16T07:34:35.907Z,0.22
2017-12-16T07:35:40.653Z,0.23
2017-12-16T07:36:45.351Z,0.23
2017-12-16T07:37:49.737Z,0.23
2017-12-16T07:38:54.128Z,0.24
2017-12-16T07:39:58.429Z,0.25
2017-12-16T07:41:03.631Z,0.27
2017-12-16T07:42:15.918Z,0.28
2017-12-16T07:43:20.703Z,0.29
2017-12-16T07:44:25.020Z,0.30
2017-12-16T07:45:29.749Z,0.33
2017-12-16T07:46:34.355Z,0.37
2017-12-16T07:47:39.067Z,0.39
2017-12-16T07:48:43.865Z,0.45
2017-12-16T07:49:48.183Z,0.50
2017-12-16T07:50:52.478Z,0.55
2017-12-16T07:51:57.009Z,0.58
2017-12-16T07:53:01.326Z,0.62
2017-12-16T07:54:05.645Z,0.66
2017-12-16T07:55:09.969Z,0.68
2017-12-16T07:56:20.346Z,0.71
2017-12-16T07:57:25.343Z,0.74
2017-12-16T07:58:30.054Z,0.79
2017-12-16T07:59:34.938Z,0.81
2017-12-16T08:00:39.805Z,0.84
2017-12-16T08:01:44.137Z,0.86
2017-12-16T08:02:49.311Z,0.92
2017-12-16T08:03:53.646Z,1.02
2017-12-16T08:04:58.339Z,1.05
2017-12-16T08:06:02.684Z,1.10
2017-12-16T08:07:07.149Z,1.33
2017-12-16T08:08:11.997Z,1.57
2017-12-16T08:09:16.559Z,1.83
2017-12-16T08:10:22.093Z,2.02
2017-12-16T08:11:26.787Z,2.38
2017-12-16T08:12:31.273Z,2.52
2017-12-16T08:13:35.637Z,2.36
2017-12-16T08:14:39.988Z,2.29
2017-12-16T08:15:44.600Z,2.29
2017-12-16T08:16:49.144Z,2.37
2017-12-16T08:17:53.536Z,2.68
2017-12-16T08:18:57.832Z,2.87
2017-12-16T08:20:02.128Z,3.14
2017-12-16T08:21:07.114Z,3.28
2017-12-16T08:22:11.537Z,3.16
2017-12-16T08:23:16.074Z,3.01
2017-12-16T08:24:21.812Z,2.83
2017-12-16T08:25:32.655Z,2.70
2017-12-16T08:26:37.834Z,2.67
2017-12-16T08:27:42.547Z,2.70
2017-12-16T08:28:46.898Z,2.68
2017-12-16T08:29:51.996Z,2.62
2017-12-16T08:30:56.320Z,2.69
2017-12-16T08:32:00.715Z,2.59
2017-12-16T08:33:05.078Z,2.53
2017-12-16T08:34:09.405Z,2.46
2017-12-16T08:35:14.111Z,2.45
2017-12-16T08:36:18.467Z,2.36
2017-12-16T08:37:22.928Z,2.36
2017-12-16T08:38:27.303Z,2.41
2017-12-16T08:39:31.653Z,2.65
2017-12-16T08:40:36.654Z,2.72
2017-12-16T08:41:41.465Z,2.60
2017-12-16T08:42:45.797Z,2.48
2017-12-16T08:43:50.121Z,2.60
2017-12-16T08:44:54.447Z,2.75
2017-12-16T08:45:58.871Z,2.87
2017-12-16T08:47:03.557Z,2.98
2017-12-16T08:48:10.718Z,3.06
2017-12-16T08:49:15.159Z,3.06
2017-12-16T08:50:19.482Z,3.02
2017-12-16T08:51:25.458Z,3.03
2017-12-16T08:52:29.950Z,3.11
2017-12-16T08:53:35.500Z,3.17
2017-12-16T08:54:39.768Z,3.23
2017-12-16T08:55:44.098Z,3.38
2017-12-16T08:56:48.563Z,3.53
2017-12-16T08:57:52.971Z,3.74
2017-12-16T08:58:57.343Z,3.93
2017-12-16T09:00:05.516Z,3.97
2017-12-16T09:01:10.396Z,4.15
2017-12-16T09:02:14.731Z,3.85
2017-12-16T09:03:19.186Z,3.52
2017-12-16T09:04:23.513Z,3.44
2017-12-16T09:05:29.625Z,3.37
2017-12-16T09:06:34.895Z,3.30
2017-12-16T09:07:39.393Z,3.10
2017-12-16T09:08:43.962Z,2.96
2017-12-16T09:09:48.428Z,2.99
2017-12-16T09:10:53.254Z,3.01
2017-12-16T09:11:57.778Z,2.99
2017-12-16T09:13:02.883Z,3.00
2017-12-16T09:14:07.252Z,2.94
2017-12-16T09:15:13.705Z,2.85
2017-12-16T09:16:27.955Z,2.70
2017-12-16T09:17:32.917Z,2.61
2017-12-16T09:18:37.560Z,2.61
2017-12-16T09:19:42.174Z,2.49
2017-12-16T09:20:46.650Z,2.44
2017-12-16T09:21:51.013Z,2.63
2017-12-16T09:22:55.380Z,2.71
2017-12-16T09:23:59.765Z,2.63
2017-12-16T09:25:04.437Z,2.57
2017-12-16T09:26:10.742Z,2.64
2017-12-16T09:27:15.084Z,2.46
2017-12-16T09:28:19.430Z,2.46
2017-12-16T09:29:23.761Z,2.56
2017-12-16T09:30:28.327Z,2.57
2017-12-16T09:31:33.422Z,2.56
2017-12-16T09:32:38.638Z,2.34
2017-12-16T09:33:43.491Z,2.20
2017-12-16T09:34:48.196Z,2.14
2017-12-16T09:35:52.762Z,2.15
2017-12-16T09:36:57.141Z,2.19
2017-12-16T09:38:01.737Z,2.37
2017-12-16T09:39:07.735Z,2.42
2017-12-16T09:40:18.963Z,2.48
2017-12-16T09:41:23.435Z,2.55
2017-12-16T09:42:27.846Z,2.54
2017-12-16T09:43:33.777Z,2.40
2017-12-16T09:44:38.459Z,2.34
2017-12-16T09:45:43.319Z,2.25
2017-12-16T09:46:47.796Z,2.19
2017-12-16T09:47:52.144Z,2.13
2017-12-16T09:48:56.750Z,2.07
2017-12-16T09:50:01.469Z,2.02
2017-12-16T09:51:06.152Z,2.03
2017-12-16T09:52:10.561Z,2.00
2017-12-16T09:53:14.976Z,1.99
2017-12-16T09:54:19.312Z,1.96
2017-12-16T09:55:24.805Z,1.95
2017-12-16T09:56:29.540Z,2.03
2017-12-16T09:57:34.003Z,2.11
2017-12-16T09:58:38.325Z,2.15
2017-12-16T09:59:42.684Z,2.19
2017-12-16T10:00:47.394Z,2.25
2017-12-16T10:01:51.712Z,2.31
2017-12-16T10:02:56.265Z,2.34
2017-12-16T10:04:00.622Z,2.48
2017-12-16T10:05:05.091Z,2.64
2017-12-16T10:06:09.459Z,2.92
2017-12-16T10:07:13.880Z,3.01
2017-12-16T10:08:22.704Z,3.22
2017-12-16T10:09:27.904Z,3.45
2017-12-16T10:10:33.180Z,3.56
2017-12-16T10:11:37.631Z,3.58
2017-12-16T10:12:42.229Z,3.61
2017-12-16T10:13:46.743Z,3.54
2017-12-16T10:14:51.177Z,3.67
2017-12-16T10:15:56.037Z,3.77
2017-12-16T10:17:00.718Z,3.93
2017-12-16T10:18:05.135Z,4.12
2017-12-16T10:19:09.598Z,4.33
2017-12-16T10:20:14.040Z,4.39
2017-12-16T10:21:19.410Z,4.61
2017-12-16T10:22:24.844Z,4.77
2017-12-16T10:23:29.204Z,4.85
2017-12-16T10:24:33.591Z,5.05
2017-12-16T10:25:47.545Z,5.05
2017-12-16T10:26:52.072Z,5.30
2017-12-16T10:27:57.058Z,5.33
2017-12-16T10:29:01.453Z,5.35
2017-12-16T10:30:08.046Z,5.62
2017-12-16T10:31:12.390Z,5.81
2017-12-16T10:32:23.087Z,6.14
2017-12-16T10:33:27.542Z,6.41
2017-12-16T10:34:32.256Z,6.43
2017-12-16T10:35:36.794Z,6.58
2017-12-16T10:36:41.179Z,6.60
2017-12-16T10:37:45.657Z,6.66
2017-12-16T10:38:50.049Z,6.58
2017-12-16T10:39:54.527Z,6.51
2017-12-16T10:40:59.749Z,6.43
2017-12-16T10:42:04.553Z,6.10
2017-12-16T10:43:08.978Z,5.83
2017-12-16T10:44:13.523Z,5.50
2017-12-16T10:45:18.867Z,5.22
2017-12-16T10:46:24.267Z,5.01
2017-12-16T10:47:28.828Z,4.80
2017-12-16T10:48:33.845Z,4.73
2017-12-16T10:49:39.279Z,4.70
2017-12-16T10:50:44.188Z,4.63
2017-12-16T10:51:48.810Z,4.80
2017-12-16T10:52:53.316Z,5.00
2017-12-16T10:53:58.089Z,5.54
2017-12-16T10:55:02.845Z,6.30
2017-12-16T10:56:07.331Z,6.90
2017-12-16T10:57:12.528Z,7.27
2017-12-16T10:58:17.166Z,7.44
2017-12-16T10:59:21.921Z,7.05
2017-12-16T11:00:31.016Z,6.34
2017-12-16T11:01:35.475Z,6.27
2017-12-16T11:02:39.900Z,6.04
2017-12-16T11:03:44.765Z,5.82
2017-12-16T11:04:49.738Z,5.39
2017-12-16T11:05:54.201Z,5.06
2017-12-16T11:06:58.698Z,4.91
2017-12-16T11:08:03.224Z,5.01
2017-12-16T11:09:07.609Z,4.99
2017-12-16T11:10:12.080Z,4.87
2017-12-16T11:11:17.197Z,4.69
2017-12-16T11:12:24.046Z,4.49
2017-12-16T11:13:28.425Z,4.42
2017-12-16T11:14:34.890Z,4.36
2017-12-16T11:15:40.056Z,4.16
2017-12-16T11:16:44.882Z,4.21
2017-12-16T11:17:49.985Z,4.23
2017-12-16T11:18:55.724Z,4.13
2017-12-16T11:20:00.168Z,4.06
2017-12-16T11:21:04.535Z,4.17
2017-12-16T11:22:09.008Z,4.22
2017-12-16T11:23:18.501Z,4.23
2017-12-16T11:24:22.954Z,4.44
2017-12-16T11:25:32.702Z,4.75
2017-12-16T11:26:37.060Z,5.51
2017-12-16T11:27:42.240Z,5.93
2017-12-16T11:28:46.825Z,6.35
2017-12-16T11:29:51.582Z,6.61
2017-12-16T11:30:56.340Z,6.97
2017-12-16T11:32:01.136Z,7.53
2017-12-16T11:33:05.520Z,8.21
2017-12-16T11:34:09.968Z,8.60
2017-12-16T11:35:14.594Z,8.77
2017-12-16T11:36:19.057Z,8.53
2017-12-16T11:37:24.569Z,8.06
2017-12-16T11:38:29.008Z,7.83
2017-12-16T11:39:33.475Z,7.99
2017-12-16T11:40:37.886Z,8.37
2017-12-16T11:41:42.868Z,8.78
2017-12-16T11:42:47.335Z,9.43
2017-12-16T11:43:54.665Z,9.68
2017-12-16T11:44:59.109Z,9.64
2017-12-16T11:46:04.511Z,9.79
2017-12-16T11:47:09.014Z,9.48
2017-12-16T11:48:13.386Z,8.73
2017-12-16T11:49:17.869Z,8.26
2017-12-16T11:50:22.901Z,8.20
2017-12-16T11:51:27.300Z,7.95
2017-12-16T11:52:32.610Z,7.70
2017-12-16T11:53:37.017Z,7.33
2017-12-16T11:54:41.889Z,7.05
2017-12-16T11:55:46.437Z,6.57
2017-12-16T11:56:50.836Z,6.39
2017-12-16T11:57:55.218Z,6.21
2017-12-16T11:58:59.650Z,6.09
2017-12-16T12:01:26.275Z,5.86
2017-12-16T12:02:30.720Z,6.10
2017-12-16T12:03:35.137Z,6.60
2017-12-16T12:04:40.273Z,7.30
2017-12-16T12:05:46.307Z,7.70
2017-12-16T12:06:52.027Z,7.86
2017-12-16T12:07:56.415Z,7.51
2017-12-16T12:09:00.989Z,7.00
2017-12-16T12:10:05.631Z,6.72
2017-12-16T12:11:11.367Z,6.36
2017-12-16T12:12:16.927Z,6.00
2017-12-16T12:13:21.343Z,5.56
2017-12-16T12:14:26.141Z,5.51
2017-12-16T12:15:31.108Z,5.29
2017-12-16T12:16:36.357Z,5.20
2017-12-16T12:17:41.556Z,5.40
2017-12-16T12:18:47.024Z,5.50
2017-12-16T12:19:51.836Z,6.13
2017-12-16T12:20:57.895Z,6.84
2017-12-16T12:22:03.098Z,7.33
2017-12-16T12:23:07.587Z,7.96
2017-12-16T12:24:12.695Z,8.46
2017-12-16T12:25:18.056Z,8.75
2017-12-16T12:26:22.786Z,9.61
2017-12-16T12:27:27.711Z,9.26
2017-12-16T12:28:32.790Z,8.27
2017-12-16T12:29:40.169Z,7.97
2017-12-16T12:30:46.444Z,8.19
2017-12-16T12:31:52.321Z,8.41
2017-12-16T12:32:58.290Z,8.56
2017-12-16T12:34:03.681Z,8.97
2017-12-16T12:35:09.292Z,9.48
2017-12-16T12:36:13.901Z,9.24
2017-12-16T12:37:19.704Z,8.38
2017-12-16T12:38:26.422Z,7.38
2017-12-16T12:39:32.067Z,6.66
2017-12-16T12:40:36.875Z,6.01
2017-12-16T12:41:43.029Z,5.50
2017-12-16T12:42:47.857Z,5.16
2017-12-16T12:43:53.642Z,5.15
2017-12-16T12:45:00.122Z,4.95
2017-12-16T12:46:06.476Z,4.75
2017-12-16T12:47:11.951Z,4.57
2017-12-16T12:48:17.055Z,4.41
2017-12-16T12:49:21.705Z,4.49
2017-12-16T12:50:27.193Z,4.55
2017-12-16T12:51:32.297Z,4.58
2017-12-16T12:52:36.685Z,4.66
2017-12-16T12:53:43.381Z,4.58
2017-12-16T12:54:47.797Z,4.66
2017-12-16T12:55:52.405Z,4.84
2017-12-16T12:56:57.673Z,4.97
2017-12-16T12:58:02.665Z,4.94
2017-12-16T12:59:09.247Z,4.83
2017-12-16T13:00:31.430Z,4.81
2017-12-16T13:01:37.112Z,4.70
2017-12-16T13:02:42.712Z,4.61
2017-12-16T13:03:50.764Z,4.62
2017-12-16T13:04:55.562Z,4.64
2017-12-16T13:06:01.432Z,4.67
2017-12-16T13:07:05.973Z,4.70
2017-12-16T13:08:12.745Z,4.68
2017-12-16T13:09:17.776Z,4.65
2017-12-16T13:10:22.661Z,4.57
2017-12-16T13:11:27.893Z,4.57
2017-12-16T13:12:32.551Z,4.25
2017-12-16T13:13:38.611Z,4.09
2017-12-16T13:14:44.808Z,4.06
2017-12-16T13:15:49.487Z,3.98
2017-12-16T13:16:55.907Z,3.99
2017-12-16T13:18:01.252Z,4.08
2017-12-16T13:19:06.862Z,3.95
2017-12-16T13:20:13.296Z,3.94
2017-12-16T13:21:18.549Z,3.86
2017-12-16T13:22:23.433Z,3.84
2017-12-16T13:23:28.275Z,3.82
2017-12-16T13:24:32.798Z,3.80
2017-12-16T13:25:37.796Z,3.73
2017-12-16T13:26:44.226Z,3.81
2017-12-16T13:27:50.084Z,3.83
2017-12-16T13:28:56.823Z,3.74
2017-12-16T13:30:03.478Z,3.76
2017-12-16T13:31:08.083Z,3.73
2017-12-16T13:32:13.079Z,3.69
2017-12-16T13:33:19.372Z,3.65
2017-12-16T13:34:26.105Z,3.70
2017-12-16T13:35:31.960Z,3.69
2017-12-16T13:36:38.028Z,3.73
2017-12-16T13:37:45.744Z,3.95
2017-12-16T13:38:50.692Z,4.60
2017-12-16T13:39:57.238Z,5.15
2017-12-16T13:42:13.268Z,5.32
2017-12-16T13:43:18.382Z,5.97
2017-12-16T13:44:24.966Z,6.35
2017-12-16T13:45:33.111Z,6.56
2017-12-16T13:46:40.639Z,6.96
2017-12-16T13:47:47.541Z,7.14
2017-12-16T13:48:53.267Z,7.28
2017-12-16T13:49:59.130Z,7.04
2017-12-16T13:51:04.482Z,6.23
2017-12-16T13:52:09.481Z,5.86
2017-12-16T13:53:16.236Z,5.97
2017-12-16T13:54:23.368Z,6.25
2017-12-16T13:55:29.325Z,6.51
2017-12-16T13:56:36.539Z,6.71
2017-12-16T13:57:43.481Z,6.94
2017-12-16T13:58:48.778Z,7.21
2017-12-16T13:59:54.722Z,7.56
2017-12-16T14:01:00.381Z,7.81
2017-12-16T14:02:04.894Z,7.77
2017-12-16T14:03:09.437Z,7.54
2017-12-16T14:04:14.382Z,7.34
2017-12-16T14:05:19.388Z,7.02
2017-12-16T14:06:26.119Z,6.65
2017-12-16T14:07:30.918Z,6.46
2017-12-16T14:08:35.937Z,6.43
2017-12-16T14:09:40.386Z,6.41
2017-12-16T14:10:44.804Z,6.11
2017-12-16T14:11:50.333Z,5.66
2017-12-16T14:12:55.224Z,5.29
2017-12-16T14:14:00.223Z,5.06
2017-12-16T14:15:06.069Z,4.95
2017-12-16T14:16:10.679Z,4.97
2017-12-16T14:17:16.118Z,4.98
2017-12-16T14:18:23.070Z,4.94
2017-12-16T14:19:28.258Z,5.04
2017-12-16T14:20:32.849Z,5.68
2017-12-16T14:21:37.783Z,6.29
2017-12-16T14:22:43.519Z,6.84
2017-12-16T14:23:48.998Z,7.44
2017-12-16T14:24:54.797Z,7.85
2017-12-16T14:26:00.170Z,7.58
2017-12-16T14:27:06.550Z,7.16
2017-12-16T14:28:12.586Z,6.68
2017-12-16T14:29:17.225Z,6.17
2017-12-16T14:30:23.120Z,5.71
2017-12-16T14:31:28.947Z,5.37
2017-12-16T14:32:34.581Z,5.04
2017-12-16T14:33:40.520Z,4.85
2017-12-16T14:34:46.249Z,4.74
2017-12-16T14:35:51.699Z,4.50